createdAt,value
2018-06-13T00:00:57.000Z,44.758
2018-06-13T00:10:57.000Z,44.756
2018-06-13T00:20:57.000Z,44.808
2018-06-13T00:30:57.000Z,44.861
2018-06-13T00:40:57.000Z,44.902
2018-06-13T00:50:57.000Z,44.91
2018-06-13T01:00:57.000Z,44.963
2018-06-13T01:10:58.000Z,44.95
2018-06-13T01:20:58.000Z,44.937
2018-06-13T01:30:58.000Z,44.978
2018-06-13T01:40:58.000Z,45.008
2018-06-13T01:50:58.000Z,45.006
2018-06-13T02:00:58.000Z,45.027
2018-06-13T02:10:58.000Z,45.079
2018-06-13T02:20:58.000Z,45.078
2018-06-13T02:30:58.000Z,45.075
2018-06-13T02:40:58.000Z,45.138
2018-06-13T02:50:58.000Z,45.104
2018-06-13T03:00:58.000Z,45.134
2018-06-13T03:10:58.000Z,45.143
2018-06-13T03:20:58.000Z,45.109
2018-06-13T03:30:59.000Z,45.184
2018-06-13T03:40:58.000Z,45.193
2018-06-13T03:50:58.000Z,45.235
2018-06-13T04:00:58.000Z,45.234
2018-06-13T04:10:58.000Z,45.307
2018-06-13T04:20:58.000Z,45.253
2018-06-13T04:30:58.000Z,45.262
2018-06-13T04:40:58.000Z,45.275
2018-06-13T04:50:58.000Z,45.305
2018-06-13T05:00:58.000Z,45.378
2018-06-13T05:10:58.000Z,45.326
2018-06-13T05:20:58.000Z,45.198
2018-06-13T05:30:58.000Z,45.207
2018-06-13T05:40:58.000Z,45.103
2018-06-13T05:50:58.000Z,45.055
2018-06-13T06:00:58.000Z,46.48
2018-06-13T06:10:58.000Z,47.285
2018-06-13T06:20:58.000Z,47.345
2018-06-13T06:30:58.000Z,47.322
2018-06-13T06:40:58.000Z,47.15
2018-06-13T06:50:58.000Z,47.14
2018-06-13T07:00:58.000Z,46.917
2018-06-13T07:10:58.000Z,46.822
2018-06-13T07:20:58.000Z,46.49
2018-06-13T07:40:58.000Z,46.134
2018-06-13T07:50:58.000Z,45.785
2018-06-13T08:00:58.000Z,45.81
2018-06-13T08:10:58.000Z,46.506
2018-06-13T08:20:58.000Z,46.435
2018-06-13T08:30:58.000Z,46.732
2018-06-13T08:41:00.000Z,46.348
2018-06-13T08:50:58.000Z,45.601
2018-06-13T09:00:58.000Z,45.106
2018-06-13T09:10:58.000Z,44.348
2018-06-13T09:30:58.000Z,42.664
2018-06-13T09:40:59.000Z,42.227
2018-06-13T09:50:59.000Z,41.416
2018-06-13T10:00:59.000Z,41.376
2018-06-13T10:10:59.000Z,41.088
2018-06-13T10:20:59.000Z,40.741
2018-06-13T10:30:59.000Z,41.249
2018-06-13T10:40:59.000Z,42.095
2018-06-13T10:50:59.000Z,43.092
2018-06-13T11:00:59.000Z,43.031
2018-06-13T11:10:59.000Z,42.474
2018-06-13T11:20:59.000Z,41.796
2018-06-13T11:30:59.000Z,41.929
2018-06-13T11:40:59.000Z,41.573
2018-06-13T11:50:59.000Z,41.05
2018-06-13T12:01:00.000Z,40.582
2018-06-13T12:10:59.000Z,39.294
2018-06-13T12:20:59.000Z,39.08
2018-06-13T12:30:59.000Z,39.038
2018-06-13T12:40:59.000Z,38.019
2018-06-13T12:50:59.000Z,37.875
2018-06-13T13:00:59.000Z,38.12
2018-06-13T13:10:59.000Z,37.681
2018-06-13T13:20:59.000Z,37.293
2018-06-13T13:30:59.000Z,36.989
2018-06-13T13:40:59.000Z,36.894
2018-06-13T13:50:59.000Z,37.017
2018-06-13T14:00:59.000Z,36.724
2018-06-13T14:10:59.000Z,35.737
2018-06-13T14:21:00.000Z,35.522
2018-06-13T14:30:59.000Z,35.774
2018-06-13T14:40:59.000Z,35.628
2018-06-13T14:50:59.000Z,35.757
2018-06-13T15:00:59.000Z,36.397
2018-06-13T15:11:00.000Z,36.552
2018-06-13T15:21:02.000Z,36.622
2018-06-13T15:30:59.000Z,37.215
2018-06-13T15:40:59.000Z,37.053
2018-06-13T15:50:59.000Z,37.313
2018-06-13T16:00:59.000Z,37.307
2018-06-13T16:10:59.000Z,37.403
2018-06-13T16:20:59.000Z,37.303
2018-06-13T16:31:00.000Z,37.421
2018-06-13T16:40:59.000Z,37.375
2018-06-13T16:50:59.000Z,38.683
2018-06-13T17:00:59.000Z,39.987
2018-06-13T17:10:59.000Z,39.905
2018-06-13T17:20:59.000Z,39.216
2018-06-13T17:31:00.000Z,38.891
2018-06-13T17:41:01.000Z,39.388
2018-06-13T17:50:59.000Z,39.351
2018-06-13T18:01:01.000Z,39.178
2018-06-13T18:11:00.000Z,39.195
2018-06-13T18:21:00.000Z,38.812
2018-06-13T18:31:01.000Z,39.186
2018-06-13T18:41:00.000Z,39.208
2018-06-13T18:51:00.000Z,39.325
2018-06-13T19:01:00.000Z,39.396
2018-06-13T19:11:00.000Z,39.791
2018-06-13T19:21:00.000Z,40.205
2018-06-13T19:31:00.000Z,40.664
2018-06-13T19:41:00.000Z,41.093
2018-06-13T19:51:00.000Z,41.479
2018-06-13T20:01:00.000Z,41.622
2018-06-13T20:11:00.000Z,41.61
2018-06-13T20:21:00.000Z,41.898
2018-06-13T20:31:00.000Z,42.012
2018-06-13T20:41:00.000Z,42.054
2018-06-13T20:51:00.000Z,42.183
2018-06-13T21:01:00.000Z,42.38
2018-06-13T21:11:00.000Z,42.512
2018-06-13T21:21:00.000Z,42.499
2018-06-13T21:31:00.000Z,42.628
2018-06-13T21:41:00.000Z,42.605
2018-06-13T21:51:00.000Z,42.666
2018-06-13T22:11:00.000Z,42.842
2018-06-13T22:21:00.000Z,42.917
2018-06-13T22:31:00.000Z,43.002
2018-06-13T22:41:00.000Z,43.053
2018-06-13T22:51:00.000Z,43.059
2018-06-13T23:01:00.000Z,43.078
2018-06-13T23:11:00.000Z,43.129
2018-06-13T23:21:00.000Z,43.192
2018-06-13T23:31:00.000Z,43.287
2018-06-13T23:41:00.000Z,43.329
2018-06-13T23:51:00.000Z,43.39
